sensor_id;sensor_type;location;lat;lon;timestamp;P1;durP1;ratioP1;P2;durP2;ratioP2
74707;SDS011;63360;50.104;8.074;2024-03-17T00:02:20;7.30;;;2.43;;
74707;SDS011;63360;50.104;8.074;2024-03-17T00:04:45;6.85;;;2.55;;
74707;SDS011;63360;50.104;8.074;2024-03-17T00:07:11;6.93;;;2.40;;
74707;SDS011;63360;50.104;8.074;2024-03-17T00:09:37;5.63;;;2.15;;
74707;SDS011;63360;50.104;8.074;2024-03-17T00:12:03;5.50;;;2.60;;
74707;SDS011;63360;50.104;8.074;2024-03-17T00:14:28;5.65;;;2.17;;
74707;SDS011;63360;50.104;8.074;2024-03-17T00:16:54;5.00;;;1.90;;
74707;SDS011;63360;50.104;8.074;2024-03-17T00:19:19;6.90;;;2.40;;
74707;SDS011;63360;50.104;8.074;2024-03-17T00:21:47;8.50;;;3.00;;
74707;SDS011;63360;50.104;8.074;2024-03-17T00:24:15;7.20;;;2.50;;
74707;SDS011;63360;50.104;8.074;2024-03-17T00:26:41;9.38;;;2.80;;
74707;SDS011;63360;50.104;8.074;2024-03-17T00:29:07;7.37;;;2.73;;
74707;SDS011;63360;50.104;8.074;2024-03-17T00:31:33;7.40;;;2.95;;
74707;SDS011;63360;50.104;8.074;2024-03-17T00:33:58;7.30;;;2.93;;
74707;SDS011;63360;50.104;8.074;2024-03-17T00:36:24;8.57;;;2.90;;
74707;SDS011;63360;50.104;8.074;2024-03-17T00:38:49;9.32;;;2.90;;
74707;SDS011;63360;50.104;8.074;2024-03-17T00:41:17;6.00;;;2.27;;
74707;SDS011;63360;50.104;8.074;2024-03-17T00:43:42;7.88;;;3.08;;
74707;SDS011;63360;50.104;8.074;2024-03-17T00:46:08;5.77;;;2.60;;
74707;SDS011;63360;50.104;8.074;2024-03-17T00:48:33;7.50;;;2.53;;
74707;SDS011;63360;50.104;8.074;2024-03-17T00:50:59;9.35;;;2.63;;
74707;SDS011;63360;50.104;8.074;2024-03-17T00:53:25;7.43;;;2.60;;
74707;SDS011;63360;50.104;8.074;2024-03-17T00:55:54;6.18;;;2.08;;
74707;SDS011;63360;50.104;8.074;2024-03-17T00:58:23;4.18;;;2.00;;
74707;SDS011;63360;50.104;8.074;2024-03-17T01:00:49;5.15;;;1.90;;
74707;SDS011;63360;50.104;8.074;2024-03-17T01:03:15;5.00;;;2.10;;
74707;SDS011;63360;50.104;8.074;2024-03-17T01:05:44;5.30;;;2.13;;
74707;SDS011;63360;50.104;8.074;2024-03-17T01:08:12;4.57;;;1.98;;
74707;SDS011;63360;50.104;8.074;2024-03-17T01:10:38;5.17;;;2.20;;
74707;SDS011;63360;50.104;8.074;2024-03-17T01:13:05;5.43;;;2.25;;
74707;SDS011;63360;50.104;8.074;2024-03-17T01:15:32;4.97;;;2.05;;
74707;SDS011;63360;50.104;8.074;2024-03-17T01:17:58;4.30;;;2.05;;
74707;SDS011;63360;50.104;8.074;2024-03-17T01:20:25;5.57;;;2.20;;
74707;SDS011;63360;50.104;8.074;2024-03-17T01:22:53;6.97;;;2.30;;
74707;SDS011;63360;50.104;8.074;2024-03-17T01:25:19;5.65;;;2.30;;
74707;SDS011;63360;50.104;8.074;2024-03-17T01:27:45;5.23;;;2.10;;
74707;SDS011;63360;50.104;8.074;2024-03-17T01:30:10;4.55;;;2.20;;
74707;SDS011;63360;50.104;8.074;2024-03-17T01:32:36;7.70;;;2.60;;
74707;SDS011;63360;50.104;8.074;2024-03-17T01:35:02;6.82;;;2.25;;
74707;SDS011;63360;50.104;8.074;2024-03-17T01:37:28;6.20;;;2.22;;
74707;SDS011;63360;50.104;8.074;2024-03-17T01:39:57;5.47;;;2.23;;
74707;SDS011;63360;50.104;8.074;2024-03-17T01:42:26;6.60;;;2.40;;
74707;SDS011;63360;50.104;8.074;2024-03-17T01:44:51;6.78;;;2.50;;
74707;SDS011;63360;50.104;8.074;2024-03-17T01:47:17;5.83;;;2.20;;
74707;SDS011;63360;50.104;8.074;2024-03-17T01:49:44;5.88;;;2.72;;
74707;SDS011;63360;50.104;8.074;2024-03-17T01:52:11;5.17;;;2.17;;
74707;SDS011;63360;50.104;8.074;2024-03-17T01:54:37;6.25;;;2.67;;
74707;SDS011;63360;50.104;8.074;2024-03-17T01:57:03;7.22;;;2.42;;
74707;SDS011;63360;50.104;8.074;2024-03-17T01:59:29;5.77;;;2.50;;
74707;SDS011;63360;50.104;8.074;2024-03-17T02:01:54;8.20;;;2.47;;
74707;SDS011;63360;50.104;8.074;2024-03-17T02:04:20;8.23;;;3.00;;
74707;SDS011;63360;50.104;8.074;2024-03-17T02:06:47;6.22;;;2.38;;
74707;SDS011;63360;50.104;8.074;2024-03-17T02:09:12;5.10;;;2.37;;
74707;SDS011;63360;50.104;8.074;2024-03-17T02:11:38;5.60;;;2.43;;
74707;SDS011;63360;50.104;8.074;2024-03-17T02:14:03;7.15;;;2.70;;
74707;SDS011;63360;50.104;8.074;2024-03-17T02:16:31;7.00;;;2.97;;
74707;SDS011;63360;50.104;8.074;2024-03-17T02:18:57;7.47;;;2.47;;
74707;SDS011;63360;50.104;8.074;2024-03-17T02:21:23;6.75;;;3.03;;
74707;SDS011;63360;50.104;8.074;2024-03-17T02:23:50;6.70;;;2.77;;
74707;SDS011;63360;50.104;8.074;2024-03-17T02:26:16;7.93;;;2.97;;
74707;SDS011;63360;50.104;8.074;2024-03-17T02:28:42;8.20;;;2.90;;
74707;SDS011;63360;50.104;8.074;2024-03-17T02:31:09;8.80;;;2.97;;
74707;SDS011;63360;50.104;8.074;2024-03-17T02:33:36;7.85;;;2.85;;
74707;SDS011;63360;50.104;8.074;2024-03-17T02:36:02;8.27;;;2.85;;
74707;SDS011;63360;50.104;8.074;2024-03-17T02:38:32;7.47;;;2.55;;
74707;SDS011;63360;50.104;8.074;2024-03-17T02:41:17;7.20;;;2.65;;
74707;SDS011;63360;50.104;8.074;2024-03-17T02:43:44;5.67;;;2.40;;
74707;SDS011;63360;50.104;8.074;2024-03-17T02:46:13;8.30;;;2.90;;
74707;SDS011;63360;50.104;8.074;2024-03-17T02:48:40;7.50;;;3.08;;
74707;SDS011;63360;50.104;8.074;2024-03-17T02:51:12;9.48;;;2.97;;
74707;SDS011;63360;50.104;8.074;2024-03-17T02:53:43;7.13;;;2.95;;
74707;SDS011;63360;50.104;8.074;2024-03-17T02:56:10;6.80;;;2.80;;
74707;SDS011;63360;50.104;8.074;2024-03-17T02:58:36;8.98;;;2.83;;
74707;SDS011;63360;50.104;8.074;2024-03-17T03:01:06;8.52;;;3.20;;
74707;SDS011;63360;50.104;8.074;2024-03-17T03:03:32;7.95;;;2.85;;
74707;SDS011;63360;50.104;8.074;2024-03-17T03:05:58;7.70;;;2.80;;
74707;SDS011;63360;50.104;8.074;2024-03-17T03:08:24;8.63;;;3.23;;
74707;SDS011;63360;50.104;8.074;2024-03-17T03:10:50;8.75;;;3.15;;
74707;SDS011;63360;50.104;8.074;2024-03-17T03:13:16;7.30;;;2.95;;
74707;SDS011;63360;50.104;8.074;2024-03-17T03:15:43;7.07;;;2.83;;
74707;SDS011;63360;50.104;8.074;2024-03-17T03:18:08;7.68;;;2.70;;
74707;SDS011;63360;50.104;8.074;2024-03-17T03:20:34;6.27;;;2.97;;
74707;SDS011;63360;50.104;8.074;2024-03-17T03:23:01;8.63;;;3.05;;
74707;SDS011;63360;50.104;8.074;2024-03-17T03:25:27;8.10;;;2.80;;
74707;SDS011;63360;50.104;8.074;2024-03-17T03:27:53;6.27;;;2.60;;
74707;SDS011;63360;50.104;8.074;2024-03-17T03:30:21;6.03;;;2.28;;
74707;SDS011;63360;50.104;8.074;2024-03-17T03:32:47;9.03;;;2.73;;
74707;SDS011;63360;50.104;8.074;2024-03-17T03:35:13;7.97;;;2.80;;
74707;SDS011;63360;50.104;8.074;2024-03-17T03:37:40;8.73;;;2.80;;
74707;SDS011;63360;50.104;8.074;2024-03-17T03:40:06;5.68;;;2.28;;
74707;SDS011;63360;50.104;8.074;2024-03-17T03:42:42;6.85;;;2.92;;
74707;SDS011;63360;50.104;8.074;2024-03-17T03:45:09;7.50;;;2.50;;
74707;SDS011;63360;50.104;8.074;2024-03-17T03:47:41;5.80;;;2.63;;
74707;SDS011;63360;50.104;8.074;2024-03-17T03:50:10;6.95;;;2.55;;
74707;SDS011;63360;50.104;8.074;2024-03-17T03:52:36;8.15;;;2.60;;
74707;SDS011;63360;50.104;8.074;2024-03-17T03:55:03;8.23;;;2.67;;
74707;SDS011;63360;50.104;8.074;2024-03-17T03:57:29;6.43;;;2.60;;
74707;SDS011;63360;50.104;8.074;2024-03-17T03:59:57;6.35;;;2.30;;
74707;SDS011;63360;50.104;8.074;2024-03-17T04:02:24;5.65;;;2.20;;
74707;SDS011;63360;50.104;8.074;2024-03-17T04:04:52;6.85;;;2.47;;
74707;SDS011;63360;50.104;8.074;2024-03-17T04:07:18;5.80;;;2.13;;
74707;SDS011;63360;50.104;8.074;2024-03-17T04:09:43;7.47;;;2.67;;
74707;SDS011;63360;50.104;8.074;2024-03-17T04:12:09;6.88;;;2.67;;
74707;SDS011;63360;50.104;8.074;2024-03-17T04:14:34;6.70;;;2.43;;
74707;SDS011;63360;50.104;8.074;2024-03-17T04:17:00;5.73;;;2.60;;
74707;SDS011;63360;50.104;8.074;2024-03-17T04:19:25;8.13;;;3.00;;
74707;SDS011;63360;50.104;8.074;2024-03-17T04:21:51;7.45;;;2.97;;
74707;SDS011;63360;50.104;8.074;2024-03-17T04:24:16;7.30;;;2.93;;
74707;SDS011;63360;50.104;8.074;2024-03-17T04:26:42;7.20;;;3.25;;
74707;SDS011;63360;50.104;8.074;2024-03-17T04:29:08;8.97;;;3.53;;
74707;SDS011;63360;50.104;8.074;2024-03-17T04:31:34;8.02;;;3.13;;
74707;SDS011;63360;50.104;8.074;2024-03-17T04:33:59;7.03;;;3.10;;
74707;SDS011;63360;50.104;8.074;2024-03-17T04:36:25;7.68;;;3.25;;
74707;SDS011;63360;50.104;8.074;2024-03-17T04:38:50;7.87;;;3.37;;
74707;SDS011;63360;50.104;8.074;2024-03-17T04:41:16;6.77;;;2.90;;
74707;SDS011;63360;50.104;8.074;2024-03-17T04:43:42;10.63;;;3.53;;
74707;SDS011;63360;50.104;8.074;2024-03-17T04:46:07;9.87;;;4.00;;
74707;SDS011;63360;50.104;8.074;2024-03-17T04:48:36;10.48;;;4.25;;
74707;SDS011;63360;50.104;8.074;2024-03-17T04:51:02;11.07;;;3.85;;
74707;SDS011;63360;50.104;8.074;2024-03-17T04:53:29;8.98;;;4.07;;
74707;SDS011;63360;50.104;8.074;2024-03-17T04:56:04;11.27;;;4.70;;
74707;SDS011;63360;50.104;8.074;2024-03-17T04:58:33;10.00;;;4.10;;
74707;SDS011;63360;50.104;8.074;2024-03-17T05:01:03;10.43;;;4.13;;
74707;SDS011;63360;50.104;8.074;2024-03-17T05:03:30;9.60;;;3.50;;
74707;SDS011;63360;50.104;8.074;2024-03-17T05:05:59;11.38;;;3.70;;
74707;SDS011;63360;50.104;8.074;2024-03-17T05:08:26;8.30;;;3.22;;
74707;SDS011;63360;50.104;8.074;2024-03-17T05:10:58;8.13;;;2.90;;
74707;SDS011;63360;50.104;8.074;2024-03-17T05:13:34;8.20;;;3.08;;
74707;SDS011;63360;50.104;8.074;2024-03-17T05:16:01;5.25;;;2.50;;
74707;SDS011;63360;50.104;8.074;2024-03-17T05:18:28;6.43;;;2.67;;
74707;SDS011;63360;50.104;8.074;2024-03-17T05:23:31;7.05;;;2.70;;
74707;SDS011;63360;50.104;8.074;2024-03-17T05:25:58;6.80;;;2.70;;
74707;SDS011;63360;50.104;8.074;2024-03-17T05:28:24;9.25;;;2.83;;
74707;SDS011;63360;50.104;8.074;2024-03-17T05:30:51;8.20;;;2.70;;
74707;SDS011;63360;50.104;8.074;2024-03-17T05:33:18;7.47;;;2.67;;
74707;SDS011;63360;50.104;8.074;2024-03-17T05:35:50;10.45;;;3.17;;
74707;SDS011;63360;50.104;8.074;2024-03-17T05:38:19;8.73;;;3.28;;
74707;SDS011;63360;50.104;8.074;2024-03-17T05:41:05;9.68;;;3.53;;
74707;SDS011;63360;50.104;8.074;2024-03-17T05:43:33;7.95;;;3.17;;
74707;SDS011;63360;50.104;8.074;2024-03-17T05:46:03;9.40;;;3.27;;
74707;SDS011;63360;50.104;8.074;2024-03-17T05:48:34;8.95;;;3.78;;
74707;SDS011;63360;50.104;8.074;2024-03-17T05:51:07;8.45;;;3.60;;
74707;SDS011;63360;50.104;8.074;2024-03-17T05:53:35;7.45;;;3.42;;
74707;SDS011;63360;50.104;8.074;2024-03-17T05:56:01;6.90;;;3.20;;
74707;SDS011;63360;50.104;8.074;2024-03-17T05:58:28;10.30;;;5.20;;
74707;SDS011;63360;50.104;8.074;2024-03-17T06:00:54;8.80;;;4.10;;
74707;SDS011;63360;50.104;8.074;2024-03-17T06:03:19;9.40;;;4.43;;
74707;SDS011;63360;50.104;8.074;2024-03-17T06:05:46;9.05;;;3.80;;
74707;SDS011;63360;50.104;8.074;2024-03-17T06:08:12;8.60;;;3.85;;
74707;SDS011;63360;50.104;8.074;2024-03-17T06:10:42;8.33;;;3.87;;
74707;SDS011;63360;50.104;8.074;2024-03-17T06:13:12;8.50;;;3.67;;
74707;SDS011;63360;50.104;8.074;2024-03-17T06:15:40;7.32;;;3.55;;
74707;SDS011;63360;50.104;8.074;2024-03-17T06:18:06;7.85;;;4.05;;
74707;SDS011;63360;50.104;8.074;2024-03-17T06:20:39;9.60;;;3.75;;
74707;SDS011;63360;50.104;8.074;2024-03-17T06:23:10;8.20;;;4.30;;
74707;SDS011;63360;50.104;8.074;2024-03-17T06:28:06;7.90;;;3.83;;
74707;SDS011;63360;50.104;8.074;2024-03-17T06:30:31;12.97;;;5.97;;
74707;SDS011;63360;50.104;8.074;2024-03-17T06:32:58;11.40;;;5.65;;
74707;SDS011;63360;50.104;8.074;2024-03-17T06:35:23;11.02;;;6.07;;
74707;SDS011;63360;50.104;8.074;2024-03-17T06:37:51;11.30;;;5.47;;
74707;SDS011;63360;50.104;8.074;2024-03-17T06:40:18;10.60;;;5.20;;
74707;SDS011;63360;50.104;8.074;2024-03-17T06:42:44;10.57;;;5.10;;
74707;SDS011;63360;50.104;8.074;2024-03-17T06:45:10;8.63;;;4.30;;
74707;SDS011;63360;50.104;8.074;2024-03-17T06:47:36;9.27;;;4.63;;
74707;SDS011;63360;50.104;8.074;2024-03-17T06:50:02;7.55;;;4.20;;
74707;SDS011;63360;50.104;8.074;2024-03-17T06:52:28;7.47;;;3.70;;
74707;SDS011;63360;50.104;8.074;2024-03-17T06:54:54;6.07;;;3.20;;
74707;SDS011;63360;50.104;8.074;2024-03-17T06:57:19;6.68;;;2.88;;
74707;SDS011;63360;50.104;8.074;2024-03-17T06:59:45;9.33;;;2.60;;
74707;SDS011;63360;50.104;8.074;2024-03-17T07:02:11;7.00;;;2.50;;
74707;SDS011;63360;50.104;8.074;2024-03-17T07:04:40;6.18;;;2.10;;
74707;SDS011;63360;50.104;8.074;2024-03-17T07:07:06;6.63;;;2.20;;
74707;SDS011;63360;50.104;8.074;2024-03-17T07:09:31;5.43;;;2.30;;
74707;SDS011;63360;50.104;8.074;2024-03-17T07:11:57;5.85;;;2.13;;
74707;SDS011;63360;50.104;8.074;2024-03-17T07:14:22;6.67;;;2.47;;
74707;SDS011;63360;50.104;8.074;2024-03-17T07:16:51;5.22;;;2.58;;
74707;SDS011;63360;50.104;8.074;2024-03-17T07:19:16;5.23;;;2.00;;
74707;SDS011;63360;50.104;8.074;2024-03-17T07:21:42;5.77;;;2.43;;
74707;SDS011;63360;50.104;8.074;2024-03-17T07:24:07;3.17;;;1.43;;
74707;SDS011;63360;50.104;8.074;2024-03-17T07:26:33;4.87;;;1.47;;
74707;SDS011;63360;50.104;8.074;2024-03-17T07:28:59;4.20;;;1.30;;
74707;SDS011;63360;50.104;8.074;2024-03-17T07:31:25;2.90;;;1.37;;
74707;SDS011;63360;50.104;8.074;2024-03-17T07:33:51;3.35;;;1.20;;
74707;SDS011;63360;50.104;8.074;2024-03-17T07:36:16;2.87;;;1.20;;
74707;SDS011;63360;50.104;8.074;2024-03-17T07:38:42;2.92;;;1.08;;
74707;SDS011;63360;50.104;8.074;2024-03-17T07:41:08;2.63;;;1.30;;
74707;SDS011;63360;50.104;8.074;2024-03-17T07:43:35;2.45;;;1.05;;
74707;SDS011;63360;50.104;8.074;2024-03-17T07:48:29;3.05;;;1.40;;
74707;SDS011;63360;50.104;8.074;2024-03-17T07:50:56;3.85;;;1.20;;
74707;SDS011;63360;50.104;8.074;2024-03-17T07:53:23;4.03;;;1.40;;
74707;SDS011;63360;50.104;8.074;2024-03-17T07:56:02;2.33;;;1.10;;
74707;SDS011;63360;50.104;8.074;2024-03-17T07:58:30;3.20;;;1.50;;
74707;SDS011;63360;50.104;8.074;2024-03-17T08:01:03;3.08;;;1.10;;
74707;SDS011;63360;50.104;8.074;2024-03-17T08:03:30;3.78;;;1.35;;
74707;SDS011;63360;50.104;8.074;2024-03-17T08:05:57;3.38;;;1.20;;
74707;SDS011;63360;50.104;8.074;2024-03-17T08:08:24;2.97;;;1.50;;
74707;SDS011;63360;50.104;8.074;2024-03-17T08:10:49;2.87;;;1.03;;
74707;SDS011;63360;50.104;8.074;2024-03-17T08:13:16;2.92;;;1.20;;
74707;SDS011;63360;50.104;8.074;2024-03-17T08:15:42;5.07;;;1.20;;
74707;SDS011;63360;50.104;8.074;2024-03-17T08:18:08;3.80;;;1.30;;
74707;SDS011;63360;50.104;8.074;2024-03-17T08:20:41;4.37;;;1.10;;
74707;SDS011;63360;50.104;8.074;2024-03-17T08:23:12;5.03;;;1.33;;
74707;SDS011;63360;50.104;8.074;2024-03-17T08:25:38;4.25;;;1.30;;
74707;SDS011;63360;50.104;8.074;2024-03-17T08:28:04;3.22;;;1.33;;
74707;SDS011;63360;50.104;8.074;2024-03-17T08:30:30;3.50;;;1.42;;
74707;SDS011;63360;50.104;8.074;2024-03-17T08:32:56;3.10;;;1.20;;
74707;SDS011;63360;50.104;8.074;2024-03-17T08:35:21;3.10;;;1.45;;
74707;SDS011;63360;50.104;8.074;2024-03-17T08:37:47;3.40;;;1.63;;
74707;SDS011;63360;50.104;8.074;2024-03-17T08:40:13;5.45;;;1.98;;
74707;SDS011;63360;50.104;8.074;2024-03-17T08:42:39;4.95;;;2.08;;
74707;SDS011;63360;50.104;8.074;2024-03-17T08:45:05;5.53;;;2.60;;
74707;SDS011;63360;50.104;8.074;2024-03-17T08:47:31;5.00;;;2.70;;
74707;SDS011;63360;50.104;8.074;2024-03-17T08:49:57;6.75;;;3.13;;
74707;SDS011;63360;50.104;8.074;2024-03-17T08:52:23;6.70;;;2.97;;
74707;SDS011;63360;50.104;8.074;2024-03-17T08:54:49;6.15;;;3.08;;
74707;SDS011;63360;50.104;8.074;2024-03-17T08:57:16;6.07;;;3.10;;
74707;SDS011;63360;50.104;8.074;2024-03-17T08:59:46;6.63;;;2.97;;
74707;SDS011;63360;50.104;8.074;2024-03-17T09:02:11;5.57;;;2.92;;
74707;SDS011;63360;50.104;8.074;2024-03-17T09:04:40;7.32;;;3.20;;
74707;SDS011;63360;50.104;8.074;2024-03-17T09:07:06;7.75;;;2.97;;
74707;SDS011;63360;50.104;8.074;2024-03-17T09:09:31;7.43;;;3.07;;
74707;SDS011;63360;50.104;8.074;2024-03-17T09:11:57;6.73;;;3.60;;
74707;SDS011;63360;50.104;8.074;2024-03-17T09:14:22;7.53;;;3.47;;
74707;SDS011;63360;50.104;8.074;2024-03-17T09:16:48;8.20;;;3.20;;
74707;SDS011;63360;50.104;8.074;2024-03-17T09:19:13;8.83;;;3.53;;
74707;SDS011;63360;50.104;8.074;2024-03-17T09:21:39;7.10;;;3.47;;
74707;SDS011;63360;50.104;8.074;2024-03-17T09:24:08;6.90;;;3.43;;
74707;SDS011;63360;50.104;8.074;2024-03-17T09:26:33;8.52;;;3.80;;
74707;SDS011;63360;50.104;8.074;2024-03-17T09:29:00;8.60;;;3.70;;
74707;SDS011;63360;50.104;8.074;2024-03-17T09:31:26;7.85;;;3.60;;
74707;SDS011;63360;50.104;8.074;2024-03-17T09:33:51;7.13;;;3.87;;
74707;SDS011;63360;50.104;8.074;2024-03-17T09:36:17;9.37;;;3.90;;
74707;SDS011;63360;50.104;8.074;2024-03-17T09:38:43;9.02;;;4.10;;
74707;SDS011;63360;50.104;8.074;2024-03-17T09:41:20;10.00;;;4.25;;
74707;SDS011;63360;50.104;8.074;2024-03-17T09:43:47;8.55;;;3.67;;
74707;SDS011;63360;50.104;8.074;2024-03-17T09:46:13;7.68;;;3.58;;
74707;SDS011;63360;50.104;8.074;2024-03-17T09:48:40;7.57;;;3.50;;
74707;SDS011;63360;50.104;8.074;2024-03-17T09:51:05;7.60;;;3.50;;
74707;SDS011;63360;50.104;8.074;2024-03-17T09:53:32;6.30;;;3.30;;
74707;SDS011;63360;50.104;8.074;2024-03-17T09:56:00;8.60;;;3.67;;
74707;SDS011;63360;50.104;8.074;2024-03-17T09:58:30;8.00;;;3.60;;
74707;SDS011;63360;50.104;8.074;2024-03-17T10:00:56;7.10;;;3.90;;
74707;SDS011;63360;50.104;8.074;2024-03-17T10:06:06;8.10;;;3.30;;
74707;SDS011;63360;50.104;8.074;2024-03-17T10:08:32;7.95;;;3.53;;
74707;SDS011;63360;50.104;8.074;2024-03-17T10:10:59;8.93;;;3.35;;
74707;SDS011;63360;50.104;8.074;2024-03-17T10:13:25;6.13;;;2.97;;
74707;SDS011;63360;50.104;8.074;2024-03-17T10:15:50;7.80;;;3.47;;
74707;SDS011;63360;50.104;8.074;2024-03-17T10:18:22;6.83;;;3.37;;
74707;SDS011;63360;50.104;8.074;2024-03-17T10:20:48;7.57;;;3.42;;
74707;SDS011;63360;50.104;8.074;2024-03-17T10:23:21;8.27;;;3.47;;
74707;SDS011;63360;50.104;8.074;2024-03-17T10:25:47;10.07;;;3.80;;
74707;SDS011;63360;50.104;8.074;2024-03-17T10:28:14;8.93;;;3.88;;
74707;SDS011;63360;50.104;8.074;2024-03-17T10:30:42;7.43;;;3.58;;
74707;SDS011;63360;50.104;8.074;2024-03-17T10:33:25;7.63;;;3.40;;
74707;SDS011;63360;50.104;8.074;2024-03-17T10:35:51;7.63;;;3.50;;
74707;SDS011;63360;50.104;8.074;2024-03-17T10:38:23;6.90;;;3.70;;
74707;SDS011;63360;50.104;8.074;2024-03-17T10:40:49;8.67;;;3.63;;
74707;SDS011;63360;50.104;8.074;2024-03-17T10:43:14;7.13;;;3.58;;
74707;SDS011;63360;50.104;8.074;2024-03-17T10:45:41;7.40;;;3.50;;
74707;SDS011;63360;50.104;8.074;2024-03-17T10:48:08;8.63;;;3.40;;
74707;SDS011;63360;50.104;8.074;2024-03-17T10:50:37;9.10;;;4.00;;
74707;SDS011;63360;50.104;8.074;2024-03-17T10:53:06;7.85;;;3.50;;
74707;SDS011;63360;50.104;8.074;2024-03-17T10:55:42;8.13;;;3.55;;
74707;SDS011;63360;50.104;8.074;2024-03-17T11:01:18;9.13;;;3.42;;
74707;SDS011;63360;50.104;8.074;2024-03-17T11:03:45;7.13;;;3.30;;
74707;SDS011;63360;50.104;8.074;2024-03-17T11:06:12;8.75;;;3.50;;
74707;SDS011;63360;50.104;8.074;2024-03-17T11:08:38;7.85;;;3.55;;
74707;SDS011;63360;50.104;8.074;2024-03-17T11:11:05;7.80;;;3.53;;
74707;SDS011;63360;50.104;8.074;2024-03-17T11:13:31;6.57;;;3.35;;
74707;SDS011;63360;50.104;8.074;2024-03-17T11:15:57;8.93;;;3.23;;
74707;SDS011;63360;50.104;8.074;2024-03-17T11:23:33;8.38;;;4.10;;
74707;SDS011;63360;50.104;8.074;2024-03-17T11:26:00;8.95;;;3.85;;
74707;SDS011;63360;50.104;8.074;2024-03-17T11:31:06;8.07;;;3.80;;
74707;SDS011;63360;50.104;8.074;2024-03-17T11:34:02;8.98;;;3.90;;
74707;SDS011;63360;50.104;8.074;2024-03-17T11:36:32;9.40;;;3.33;;
74707;SDS011;63360;50.104;8.074;2024-03-17T11:39:01;9.80;;;3.67;;
74707;SDS011;63360;50.104;8.074;2024-03-17T11:41:43;7.73;;;3.90;;
74707;SDS011;63360;50.104;8.074;2024-03-17T11:51:54;9.68;;;4.07;;
74707;SDS011;63360;50.104;8.074;2024-03-17T11:54:23;8.37;;;3.70;;
74707;SDS011;63360;50.104;8.074;2024-03-17T11:56:53;7.60;;;3.53;;
74707;SDS011;63360;50.104;8.074;2024-03-17T11:59:19;8.88;;;3.92;;
74707;SDS011;63360;50.104;8.074;2024-03-17T12:01:45;8.02;;;4.10;;
74707;SDS011;63360;50.104;8.074;2024-03-17T12:04:16;9.02;;;4.45;;
74707;SDS011;63360;50.104;8.074;2024-03-17T12:06:44;11.23;;;4.10;;
74707;SDS011;63360;50.104;8.074;2024-03-17T12:09:10;9.45;;;4.15;;
74707;SDS011;63360;50.104;8.074;2024-03-17T12:11:36;8.85;;;3.92;;
74707;SDS011;63360;50.104;8.074;2024-03-17T12:14:36;8.77;;;4.00;;
74707;SDS011;63360;50.104;8.074;2024-03-17T12:16:55;8.13;;;4.15;;
74707;SDS011;63360;50.104;8.074;2024-03-17T12:19:22;7.70;;;3.73;;
74707;SDS011;63360;50.104;8.074;2024-03-17T12:21:49;8.40;;;4.38;;
74707;SDS011;63360;50.104;8.074;2024-03-17T12:24:17;8.23;;;4.15;;
74707;SDS011;63360;50.104;8.074;2024-03-17T12:26:44;9.80;;;4.22;;
74707;SDS011;63360;50.104;8.074;2024-03-17T12:29:31;7.53;;;3.88;;
74707;SDS011;63360;50.104;8.074;2024-03-17T12:32:04;10.57;;;4.53;;
74707;SDS011;63360;50.104;8.074;2024-03-17T12:34:31;7.75;;;4.20;;
74707;SDS011;63360;50.104;8.074;2024-03-17T12:36:59;8.82;;;3.90;;
74707;SDS011;63360;50.104;8.074;2024-03-17T12:42:08;8.73;;;4.75;;
74707;SDS011;63360;50.104;8.074;2024-03-17T12:44:38;9.40;;;4.30;;
74707;SDS011;63360;50.104;8.074;2024-03-17T12:47:11;9.27;;;4.38;;
74707;SDS011;63360;50.104;8.074;2024-03-17T12:49:43;10.02;;;4.25;;
74707;SDS011;63360;50.104;8.074;2024-03-17T12:52:16;9.93;;;5.45;;
74707;SDS011;63360;50.104;8.074;2024-03-17T12:54:43;10.68;;;4.72;;
74707;SDS011;63360;50.104;8.074;2024-03-17T12:57:15;7.80;;;4.03;;
74707;SDS011;63360;50.104;8.074;2024-03-17T13:00:00;10.73;;;4.47;;
74707;SDS011;63360;50.104;8.074;2024-03-17T13:02:44;8.65;;;3.70;;
74707;SDS011;63360;50.104;8.074;2024-03-17T13:05:19;10.75;;;4.43;;
74707;SDS011;63360;50.104;8.074;2024-03-17T13:07:49;9.07;;;4.00;;
74707;SDS011;63360;50.104;8.074;2024-03-17T13:10:19;7.70;;;3.90;;
74707;SDS011;63360;50.104;8.074;2024-03-17T13:12:45;9.32;;;4.25;;
74707;SDS011;63360;50.104;8.074;2024-03-17T13:15:14;8.45;;;4.20;;
74707;SDS011;63360;50.104;8.074;2024-03-17T13:17:44;9.60;;;3.80;;
74707;SDS011;63360;50.104;8.074;2024-03-17T13:20:14;7.85;;;3.85;;
74707;SDS011;63360;50.104;8.074;2024-03-17T13:22:41;9.27;;;4.40;;
74707;SDS011;63360;50.104;8.074;2024-03-17T13:25:17;8.73;;;4.38;;
74707;SDS011;63360;50.104;8.074;2024-03-17T13:27:44;9.82;;;4.32;;
74707;SDS011;63360;50.104;8.074;2024-03-17T13:30:14;8.95;;;4.22;;
74707;SDS011;63360;50.104;8.074;2024-03-17T13:32:41;9.48;;;4.50;;
74707;SDS011;63360;50.104;8.074;2024-03-17T13:35:21;8.90;;;4.50;;
74707;SDS011;63360;50.104;8.074;2024-03-17T13:37:50;8.82;;;4.32;;
74707;SDS011;63360;50.104;8.074;2024-03-17T13:40:17;7.75;;;4.30;;
74707;SDS011;63360;50.104;8.074;2024-03-17T13:42:48;8.65;;;4.63;;
74707;SDS011;63360;50.104;8.074;2024-03-17T13:45:15;7.60;;;3.90;;
74707;SDS011;63360;50.104;8.074;2024-03-17T13:47:42;8.27;;;4.20;;
74707;SDS011;63360;50.104;8.074;2024-03-17T13:50:15;8.75;;;4.38;;
74707;SDS011;63360;50.104;8.074;2024-03-17T13:52:40;10.17;;;4.97;;
74707;SDS011;63360;50.104;8.074;2024-03-17T13:55:16;7.85;;;4.30;;
74707;SDS011;63360;50.104;8.074;2024-03-17T13:57:50;9.65;;;4.45;;
74707;SDS011;63360;50.104;8.074;2024-03-17T14:00:17;9.02;;;4.25;;
74707;SDS011;63360;50.104;8.074;2024-03-17T14:02:43;12.25;;;5.35;;
74707;SDS011;63360;50.104;8.074;2024-03-17T14:05:13;8.70;;;4.60;;
74707;SDS011;63360;50.104;8.074;2024-03-17T14:07:40;11.35;;;4.82;;
74707;SDS011;63360;50.104;8.074;2024-03-17T14:10:06;10.80;;;4.55;;
74707;SDS011;63360;50.104;8.074;2024-03-17T14:12:34;9.35;;;4.82;;
74707;SDS011;63360;50.104;8.074;2024-03-17T14:15:00;10.43;;;4.68;;
74707;SDS011;63360;50.104;8.074;2024-03-17T14:17:26;9.57;;;4.47;;
74707;SDS011;63360;50.104;8.074;2024-03-17T14:19:52;8.43;;;4.57;;
74707;SDS011;63360;50.104;8.074;2024-03-17T14:22:18;9.35;;;5.10;;
74707;SDS011;63360;50.104;8.074;2024-03-17T14:24:44;9.50;;;4.40;;
74707;SDS011;63360;50.104;8.074;2024-03-17T14:27:09;9.90;;;4.70;;
74707;SDS011;63360;50.104;8.074;2024-03-17T14:29:37;10.70;;;4.53;;
74707;SDS011;63360;50.104;8.074;2024-03-17T14:32:03;10.18;;;4.55;;
74707;SDS011;63360;50.104;8.074;2024-03-17T14:34:29;10.97;;;4.70;;
74707;SDS011;63360;50.104;8.074;2024-03-17T14:37:00;9.70;;;4.60;;
74707;SDS011;63360;50.104;8.074;2024-03-17T14:39:26;9.93;;;4.72;;
74707;SDS011;63360;50.104;8.074;2024-03-17T14:41:54;9.18;;;4.43;;
74707;SDS011;63360;50.104;8.074;2024-03-17T14:44:20;8.83;;;4.70;;
74707;SDS011;63360;50.104;8.074;2024-03-17T14:46:45;9.73;;;4.82;;
74707;SDS011;63360;50.104;8.074;2024-03-17T14:49:10;14.23;;;5.63;;
74707;SDS011;63360;50.104;8.074;2024-03-17T14:51:36;10.03;;;5.30;;
74707;SDS011;63360;50.104;8.074;2024-03-17T14:54:01;11.38;;;5.55;;
74707;SDS011;63360;50.104;8.074;2024-03-17T14:56:27;9.30;;;4.67;;
74707;SDS011;63360;50.104;8.074;2024-03-17T14:58:52;8.77;;;4.30;;
74707;SDS011;63360;50.104;8.074;2024-03-17T15:01:18;8.80;;;4.23;;
74707;SDS011;63360;50.104;8.074;2024-03-17T15:03:43;9.95;;;5.07;;
74707;SDS011;63360;50.104;8.074;2024-03-17T15:06:12;10.17;;;5.23;;
74707;SDS011;63360;50.104;8.074;2024-03-17T15:08:40;11.10;;;5.32;;
74707;SDS011;63360;50.104;8.074;2024-03-17T15:11:06;9.75;;;4.88;;
74707;SDS011;63360;50.104;8.074;2024-03-17T15:13:34;9.20;;;4.25;;
74707;SDS011;63360;50.104;8.074;2024-03-17T15:16:01;10.67;;;4.60;;
74707;SDS011;63360;50.104;8.074;2024-03-17T15:18:29;10.20;;;4.85;;
74707;SDS011;63360;50.104;8.074;2024-03-17T15:20:59;10.30;;;4.70;;